Time;durP1;ratioP1;P1;durP2;ratioP2;P2;SDS_P1;SDS_P2;PMS_P1;PMS_P2;Temp;Humidity;BMP_temperature;BMP_pressure;BME280_temperature;BME280_humidity;BME280_pressure;Samples;Min_cycle;Max_cycle;Signal;HPM_P1;HPM_P2
2024/01/30 00:01:34;;;;;;;0.20;0.10;;;;;;;0.90;99.81;101664.00;4982623;28;20963;-50
2024/01/30 00:04:01;;;;;;;10.00;9.27;;;;;;;0.79;99.38;101668.88;4987957;28;20933;-51
2024/01/30 00:06:27;;;;;;;0.20;0.10;;;;;;;0.74;99.36;101666.94;4986256;28;20476;-50
2024/01/30 00:08:54;;;;;;;0.20;0.10;;;;;;;0.77;99.78;101670.53;4981080;28;20855;-50
2024/01/30 00:11:21;;;;;;;0.20;0.10;;;;;;;0.57;98.22;101669.91;4982332;28;20461;-51
2024/01/30 00:13:47;;;;;;;0.20;0.10;;;;;;;0.56;98.97;101672.47;4987278;28;20478;-50
2024/01/30 00:16:24;;;;;;;0.20;0.10;;;;;;;0.50;99.05;101673.13;4976747;28;20498;-52
2024/01/30 00:18:51;;;;;;;0.20;0.10;;;;;;;0.47;99.18;101670.41;4974414;28;20449;-50
2024/01/30 00:21:19;;;;;;;33.07;27.90;;;;;;;0.48;98.52;101676.53;4987473;28;20464;-51
2024/01/30 00:23:45;;;;;;;1.23;1.13;;;;;;;0.42;99.27;101673.72;4981796;28;20556;-52
2024/01/30 00:26:12;;;;;;;0.20;0.10;;;;;;;0.54;99.66;101671.50;4980705;28;20509;-52
2024/01/30 00:28:39;;;;;;;0.30;0.30;;;;;;;0.40;98.72;101676.25;4986014;28;20450;-51
2024/01/30 00:31:05;;;;;;;0.20;0.10;;;;;;;0.52;99.20;101671.44;4986951;28;20534;-51
2024/01/30 00:33:32;;;;;;;0.20;0.10;;;;;;;0.57;100.00;101658.53;4982109;28;20461;-50
2024/01/30 00:35:58;;;;;;;0.20;0.20;;;;;;;0.42;98.91;101663.25;4980442;28;20548;-51
2024/01/30 00:38:25;;;;;;;0.20;0.10;;;;;;;0.42;98.89;101674.59;4985644;28;20989;-51
2024/01/30 00:40:51;;;;;;;0.20;0.10;;;;;;;0.35;98.63;101666.47;5000276;28;20831;-51
2024/01/30 00:43:18;;;;;;;0.20;0.10;;;;;;;0.41;98.06;101666.66;4982346;28;20560;-52
2024/01/30 00:45:44;;;;;;;0.20;0.10;;;;;;;0.47;98.46;101667.78;4980258;28;20463;-50
2024/01/30 00:48:11;;;;;;;0.20;0.10;;;;;;;0.33;97.41;101670.75;4993444;28;20469;-51
2024/01/30 00:50:37;;;;;;;0.20;0.10;;;;;;;0.51;98.54;101679.25;4990951;28;20532;-50
2024/01/30 00:53:04;;;;;;;0.20;0.10;;;;;;;0.44;98.36;101674.66;4982822;28;20457;-51
2024/01/30 00:55:30;;;;;;;0.20;0.10;;;;;;;0.34;98.44;101676.03;4979987;28;20589;-50
2024/01/30 00:57:57;;;;;;;0.20;0.10;;;;;;;0.44;98.70;101672.03;4984125;28;20843;-51
2024/01/30 01:00:28;;;;;;;0.20;0.10;;;;;;;0.50;100.00;101677.47;4986439;28;20863;-51
2024/01/30 01:02:55;;;;;;;0.20;0.10;;;;;;;0.44;98.84;101677.25;4965636;28;20449;-51
2024/01/30 01:05:22;;;;;;;0.20;0.10;;;;;;;0.52;99.08;101674.06;4979987;28;20931;-51
2024/01/30 01:07:49;;;;;;;0.20;0.20;;;;;;;0.44;98.50;101665.06;4982426;28;20873;-51
2024/01/30 01:10:19;;;;;;;0.30;0.10;;;;;;;0.38;97.84;101667.47;4986660;28;20496;-50
2024/01/30 01:12:46;;;;;;;0.20;0.10;;;;;;;0.34;98.61;101667.31;4984117;28;20475;-50
2024/01/30 01:15:12;;;;;;;0.20;0.10;;;;;;;0.36;99.10;101670.88;4992849;28;20450;-51
2024/01/30 01:17:40;;;;;;;0.20;0.10;;;;;;;0.28;98.60;101668.00;4982089;28;20649;-51
2024/01/30 01:20:07;;;;;;;0.20;0.10;;;;;;;0.29;98.05;101665.44;4986357;28;20512;-50
2024/01/30 01:22:34;;;;;;;0.20;0.10;;;;;;;0.24;97.87;101661.75;4984807;28;20466;-51
2024/01/30 01:25:01;;;;;;;0.20;0.10;;;;;;;0.22;98.54;101670.38;4979461;28;20544;-52
2024/01/30 01:27:27;;;;;;;0.20;0.10;;;;;;;0.21;98.16;101661.66;4991065;28;20473;-50
2024/01/30 01:29:54;;;;;;;0.20;0.10;;;;;;;0.15;98.86;101666.66;4979585;28;20469;-50
2024/01/30 01:32:21;;;;;;;0.20;0.10;;;;;;;0.37;99.04;101664.78;4992665;28;20461;-51
2024/01/30 01:34:47;;;;;;;5.10;3.50;;;;;;;0.20;98.79;101667.72;4979200;28;20883;-50
2024/01/30 01:37:14;;;;;;;0.20;0.10;;;;;;;0.09;98.92;101669.03;4980471;28;20502;-49
2024/01/30 01:39:41;;;;;;;0.20;0.10;;;;;;;0.20;98.58;101670.31;4996878;28;20455;-51
2024/01/30 01:42:07;;;;;;;0.20;0.10;;;;;;;0.20;98.37;101678.16;4987718;28;20450;-51
2024/01/30 01:44:33;;;;;;;0.20;0.10;;;;;;;0.18;97.63;101674.63;4986089;28;20458;-51
2024/01/30 01:47:00;;;;;;;0.20;0.10;;;;;;;0.10;98.16;101668.22;4984953;28;20500;-51
2024/01/30 01:49:27;;;;;;;0.20;0.10;;;;;;;0.14;98.76;101666.63;4992231;28;20543;-51
2024/01/30 01:51:59;;;;;;;0.20;0.10;;;;;;;0.13;97.97;101668.31;4980047;28;20952;-51
2024/01/30 01:54:27;;;;;;;0.20;0.10;;;;;;;0.08;98.92;101669.00;4972908;28;20813;-51
2024/01/30 01:56:54;;;;;;;0.20;0.10;;;;;;;0.26;99.17;101665.31;4985674;28;20953;-51
2024/01/30 01:59:23;;;;;;;0.20;0.10;;;;;;;0.26;98.73;101662.69;4979585;28;20495;-51
2024/01/30 02:01:51;;;;;;;0.20;0.10;;;;;;;0.17;98.92;101658.88;4979127;28;20458;-50
2024/01/30 02:04:18;;;;;;;0.20;0.10;;;;;;;0.14;98.45;101657.06;4984526;28;20458;-51
2024/01/30 02:06:45;;;;;;;0.20;0.10;;;;;;;0.11;97.71;101669.09;4985445;28;20487;-51
2024/01/30 02:09:12;;;;;;;0.20;0.10;;;;;;;0.02;96.94;101672.28;4963226;28;20458;-50
2024/01/30 02:11:38;;;;;;;0.20;0.10;;;;;;;-0.10;97.48;101662.28;4979229;28;20454;-51
2024/01/30 02:14:05;;;;;;;0.20;0.10;;;;;;;-0.06;98.98;101666.78;4986928;28;20462;-51
2024/01/30 02:16:32;;;;;;;0.20;0.10;;;;;;;-0.02;98.28;101671.25;4963474;28;20904;-51
2024/01/30 02:18:58;;;;;;;0.20;0.10;;;;;;;-0.06;98.27;101664.16;4987845;28;20513;-51
2024/01/30 02:21:25;;;;;;;0.20;0.10;;;;;;;0.03;98.83;101660.13;4989630;28;20818;-51
2024/01/30 02:23:53;;;;;;;0.20;0.10;;;;;;;-0.05;99.22;101663.31;4985229;28;20457;-51
2024/01/30 02:26:19;;;;;;;0.20;0.10;;;;;;;0.06;98.64;101665.44;4982637;28;21003;-51
2024/01/30 02:28:46;;;;;;;1.53;1.53;;;;;;;0.03;98.73;101655.78;4986846;28;20478;-51
2024/01/30 02:31:13;;;;;;;0.20;0.10;;;;;;;-0.04;98.36;101666.81;4989788;28;21011;-51
2024/01/30 02:33:39;;;;;;;0.20;0.10;;;;;;;-0.06;98.53;101661.53;4985661;28;20461;-52
2024/01/30 02:36:06;;;;;;;0.20;0.10;;;;;;;0.01;98.72;101660.06;4982410;28;20497;-51
2024/01/30 02:38:33;;;;;;;0.20;0.10;;;;;;;0.08;98.12;101663.78;4986575;28;20482;-51
2024/01/30 02:40:59;;;;;;;0.20;0.10;;;;;;;-0.01;98.05;101659.97;5002730;28;20541;-50
2024/01/30 02:43:26;;;;;;;3.60;3.40;;;;;;;-0.04;98.86;101652.03;4985598;28;20540;-50
2024/01/30 02:45:52;;;;;;;0.20;0.10;;;;;;;-0.01;98.78;101656.47;4982228;28;20454;-51
2024/01/30 02:48:19;;;;;;;0.20;0.10;;;;;;;-0.03;99.22;101658.16;4995433;28;20457;-51
2024/01/30 02:50:45;;;;;;;0.27;0.17;;;;;;;-0.12;98.94;101658.72;4992752;28;21026;-51
2024/01/30 02:53:12;;;;;;;0.20;0.10;;;;;;;-0.07;98.20;101657.16;4985719;28;20500;-50
2024/01/30 02:55:38;;;;;;;0.20;0.10;;;;;;;-0.03;98.60;101658.16;4982130;28;20477;-50
2024/01/30 02:58:05;;;;;;;0.20;0.10;;;;;;;-0.11;98.86;101651.78;4985556;28;20502;-50
2024/01/30 03:00:31;;;;;;;3.17;3.03;;;;;;;-0.12;99.03;101647.38;4988906;28;20547;-52
2024/01/30 03:02:58;;;;;;;2.43;2.43;;;;;;;-0.17;98.85;101644.59;4985482;28;20833;-50
2024/01/30 03:05:24;;;;;;;0.20;0.10;;;;;;;-0.20;98.15;101646.19;4982273;28;20507;-50
2024/01/30 03:07:51;;;;;;;0.20;0.20;;;;;;;-0.27;98.15;101652.00;4985171;28;20500;-51
2024/01/30 03:10:17;;;;;;;0.20;0.10;;;;;;;-0.28;98.16;101647.63;4988855;28;20446;-51
2024/01/30 03:12:44;;;;;;;0.20;0.10;;;;;;;-0.31;97.52;101654.53;4985972;28;20457;-50
2024/01/30 03:15:10;;;;;;;0.20;0.10;;;;;;;-0.34;97.39;101646.56;4980835;28;20458;-51
2024/01/30 03:17:37;;;;;;;0.20;0.10;;;;;;;-0.37;98.75;101653.41;4985750;28;20493;-50
2024/01/30 03:20:06;;;;;;;0.20;0.10;;;;;;;-0.41;98.56;101648.88;4982149;28;20456;-51
2024/01/30 03:22:32;;;;;;;0.20;0.10;;;;;;;-0.39;99.05;101650.75;4984135;28;20454;-50
2024/01/30 03:24:59;;;;;;;0.20;0.10;;;;;;;-0.37;98.80;101651.69;4988253;28;20515;-50
2024/01/30 03:27:25;;;;;;;0.20;0.10;;;;;;;-0.37;97.96;101649.06;4991100;28;20469;-52
2024/01/30 03:29:51;;;;;;;0.20;0.10;;;;;;;-0.42;97.59;101652.34;4981641;28;20453;-50
2024/01/30 03:32:18;;;;;;;0.20;0.10;;;;;;;-0.43;97.39;101648.81;4983734;28;20508;-50
2024/01/30 03:34:44;;;;;;;0.20;0.10;;;;;;;-0.43;97.96;101646.22;4988578;28;20538;-50
2024/01/30 03:37:11;;;;;;;0.20;0.20;;;;;;;-0.39;97.86;101645.53;4986052;28;20493;-50
2024/01/30 03:39:37;;;;;;;0.20;0.10;;;;;;;-0.47;98.92;101646.06;4987126;28;20449;-50
2024/01/30 03:42:04;;;;;;;0.20;0.10;;;;;;;-0.47;98.53;101646.94;4990796;28;20450;-50
2024/01/30 03:44:30;;;;;;;0.20;0.10;;;;;;;-0.53;97.88;101638.91;4988230;28;20455;-51
2024/01/30 03:46:57;;;;;;;0.20;0.10;;;;;;;-0.52;98.86;101637.16;4986364;28;21137;-50
2024/01/30 03:49:23;;;;;;;0.20;0.10;;;;;;;-0.34;98.95;101640.47;4989341;28;20447;-51
2024/01/30 03:51:50;;;;;;;0.20;0.10;;;;;;;-0.25;97.92;101638.19;4982340;28;20531;-51
2024/01/30 03:54:16;;;;;;;0.20;0.10;;;;;;;-0.40;98.05;101637.63;4988051;28;20461;-50
2024/01/30 03:56:43;;;;;;;0.20;0.10;;;;;;;-0.42;98.30;101641.88;4987011;28;20572;-50
2024/01/30 03:59:09;;;;;;;0.20;0.10;;;;;;;-0.38;99.00;101634.25;4981028;28;20957;-51
2024/01/30 04:01:36;;;;;;;0.20;0.10;;;;;;;-0.28;98.88;101639.78;4982604;28;20461;-51
2024/01/30 04:04:02;;;;;;;0.30;0.20;;;;;;;-0.27;98.30;101629.44;4987875;28;20477;-50
2024/01/30 04:06:29;;;;;;;0.30;0.20;;;;;;;-0.41;98.61;101631.53;4987350;28;20466;-50
2024/01/30 04:08:55;;;;;;;0.20;0.10;;;;;;;-0.39;98.25;101642.91;4988515;28;20454;-51
2024/01/30 04:11:22;;;;;;;0.30;0.20;;;;;;;-0.28;98.02;101639.78;4987022;28;20449;-50
2024/01/30 04:13:49;;;;;;;0.20;0.10;;;;;;;-0.27;97.81;101641.56;4980705;28;21125;-51
2024/01/30 04:16:21;;;;;;;0.20;0.10;;;;;;;-0.27;98.08;101636.34;4993819;28;20587;-51
2024/01/30 04:18:47;;;;;;;0.20;0.10;;;;;;;-0.43;97.61;101643.59;4993989;28;20454;-50
2024/01/30 04:21:14;;;;;;;0.20;0.10;;;;;;;-0.39;97.68;101636.81;4980771;28;20458;-51
2024/01/30 04:23:41;;;;;;;0.20;0.10;;;;;;;-0.33;97.43;101635.28;4989348;28;20457;-51
2024/01/30 04:26:08;;;;;;;0.20;0.10;;;;;;;-0.47;97.49;101646.94;4980765;28;20499;-50
2024/01/30 04:28:34;;;;;;;0.20;0.10;;;;;;;-0.68;98.32;101641.81;4986208;28;20546;-50
2024/01/30 04:31:01;;;;;;;0.20;0.10;;;;;;;-0.79;98.70;101640.50;4987509;28;20465;-51
2024/01/30 04:33:27;;;;;;;0.20;0.10;;;;;;;-0.68;99.20;101649.66;4981621;28;20461;-51
2024/01/30 04:35:53;;;;;;;0.20;0.10;;;;;;;-0.72;99.25;101644.22;4980226;28;20875;-50
2024/01/30 04:38:20;;;;;;;0.20;0.10;;;;;;;-0.73;99.08;101645.94;4985720;28;21018;-51
2024/01/30 04:40:46;;;;;;;0.20;0.10;;;;;;;-0.77;99.25;101646.66;4999930;28;20502;-50
2024/01/30 04:43:14;;;;;;;0.20;0.10;;;;;;;-0.64;99.81;101653.25;4981971;28;20529;-51
2024/01/30 04:45:41;;;;;;;0.20;0.10;;;;;;;-0.74;99.65;101648.50;4980341;28;20451;-52
2024/01/30 04:48:08;;;;;;;1.40;1.30;;;;;;;-0.66;99.55;101650.59;4993529;28;20955;-50
2024/01/30 04:50:34;;;;;;;0.20;0.10;;;;;;;-0.65;100.00;101648.88;4991465;28;20532;-50
2024/01/30 04:53:01;;;;;;;0.20;0.10;;;;;;;-0.54;100.00;101644.06;4965290;28;20462;-51
2024/01/30 04:55:27;;;;;;;0.20;0.20;;;;;;;-0.64;99.94;101650.66;4980019;28;20533;-51
2024/01/30 04:57:54;;;;;;;0.20;0.10;;;;;;;-0.57;99.65;101647.41;4984355;28;20502;-50
2024/01/30 05:00:21;;;;;;;0.20;0.10;;;;;;;-0.70;99.10;101653.88;4986776;28;20946;-51
2024/01/30 05:02:47;;;;;;;0.20;0.10;;;;;;;-0.64;99.72;101655.88;4982701;28;20464;-51
2024/01/30 05:05:14;;;;;;;0.20;0.10;;;;;;;-0.54;99.66;101655.41;4980146;28;20478;-51
2024/01/30 05:07:41;;;;;;;0.20;0.10;;;;;;;-0.58;99.72;101658.69;4984137;28;20533;-51
2024/01/30 05:10:08;;;;;;;0.20;0.10;;;;;;;-0.52;99.55;101658.06;4986459;28;20548;-50
2024/01/30 05:12:35;;;;;;;0.20;0.10;;;;;;;-0.50;99.28;101659.00;4982929;28;20489;-51
2024/01/30 05:15:01;;;;;;;0.20;0.10;;;;;;;-0.47;100.00;101659.13;4979744;28;20496;-51
2024/01/30 05:17:28;;;;;;;0.73;0.73;;;;;;;-0.40;100.00;101656.81;5007748;28;20579;-50
2024/01/30 05:19:54;;;;;;;0.20;0.10;;;;;;;-0.50;99.83;101656.38;4979840;28;20481;-51
2024/01/30 05:22:21;;;;;;;0.20;0.10;;;;;;;-0.55;99.15;101663.13;4982928;28;20650;-51
2024/01/30 05:24:47;;;;;;;0.20;0.10;;;;;;;-0.39;99.72;101663.81;4969082;28;20454;-51
2024/01/30 05:27:14;;;;;;;0.20;0.10;;;;;;;-0.55;99.59;101658.81;4983211;28;20834;-50
2024/01/30 05:29:41;;;;;;;0.60;0.60;;;;;;;-0.41;99.57;101652.41;4979488;28;20934;-51
2024/01/30 05:32:07;;;;;;;0.20;0.10;;;;;;;-0.35;100.00;101649.13;4982889;28;20455;-50
2024/01/30 05:34:34;;;;;;;0.20;0.10;;;;;;;-0.38;100.00;101649.91;4986206;28;20450;-52
2024/01/30 05:37:00;;;;;;;0.20;0.10;;;;;;;-0.48;99.35;101649.50;4982746;28;20555;-51
2024/01/30 05:39:27;;;;;;;0.20;0.10;;;;;;;-0.52;99.35;101651.13;4983141;28;20445;-52
2024/01/30 05:41:54;;;;;;;0.53;0.53;;;;;;;-0.57;98.77;101655.25;4991745;28;20492;-50
2024/01/30 05:44:20;;;;;;;0.20;0.10;;;;;;;-0.53;99.47;101649.34;4986272;28;20458;-51
2024/01/30 05:46:46;;;;;;;0.83;0.83;;;;;;;-0.59;99.65;101651.69;4982909;28;20483;-50
2024/01/30 05:49:13;;;;;;;2.20;2.10;;;;;;;-0.51;100.00;101652.00;4982091;28;21030;-50
2024/01/30 05:51:39;;;;;;;0.20;0.10;;;;;;;-0.64;100.00;101648.03;4980445;28;20465;-51
2024/01/30 05:54:06;;;;;;;0.20;0.10;;;;;;;-0.66;100.00;101652.31;4985886;28;20457;-50
2024/01/30 05:56:32;;;;;;;0.20;0.10;;;;;;;-0.58;100.00;101652.59;4982963;28;21009;-50
2024/01/30 05:58:59;;;;;;;0.20;0.10;;;;;;;-0.63;100.00;101653.31;4979223;28;20552;-50
2024/01/30 06:01:25;;;;;;;44.10;26.60;;;;;;;-0.61;100.00;101648.16;4981454;28;20458;-51
2024/01/30 06:03:52;;;;;;;0.30;0.20;;;;;;;-0.69;100.00;101652.16;4985827;28;20457;-50
2024/01/30 06:06:18;;;;;;;0.20;0.10;;;;;;;-0.71;100.00;101648.59;4983346;28;20844;-52
2024/01/30 06:08:45;;;;;;;0.20;0.10;;;;;;;-0.54;100.00;101652.78;4978930;28;20469;-51
2024/01/30 06:11:12;;;;;;;0.20;0.10;;;;;;;-0.35;100.00;101649.13;4981490;28;20493;-51
2024/01/30 06:13:38;;;;;;;0.20;0.10;;;;;;;-0.36;100.00;101647.34;4985587;28;20494;-50
2024/01/30 06:16:08;;;;;;;0.20;0.10;;;;;;;-0.42;100.00;101650.59;4983690;28;20473;-51
2024/01/30 06:18:35;;;;;;;1.03;1.03;;;;;;;-0.47;100.00;101661.72;4979044;28;20497;-50
2024/01/30 06:21:01;;;;;;;0.20;0.10;;;;;;;-0.58;100.00;101656.09;4980165;28;20557;-50
2024/01/30 06:23:27;;;;;;;0.20;0.10;;;;;;;-0.56;100.00;101671.81;4985609;28;20455;-50
2024/01/30 06:25:54;;;;;;;0.20;0.10;;;;;;;-0.47;100.00;101665.22;4984469;28;20457;-50
2024/01/30 06:28:20;;;;;;;0.20;0.10;;;;;;;-0.52;100.00;101665.91;4986010;28;20457;-51
2024/01/30 06:30:47;;;;;;;0.20;0.10;;;;;;;-0.57;100.00;101667.41;4984157;28;20461;-49
2024/01/30 06:33:13;;;;;;;0.20;0.10;;;;;;;-0.53;100.00;101666.72;4978880;28;20458;-50
2024/01/30 06:35:40;;;;;;;0.20;0.10;;;;;;;-0.52;100.00;101665.91;4980381;28;20481;-50
2024/01/30 06:38:10;;;;;;;0.20;0.10;;;;;;;-0.48;100.00;101673.00;4985692;28;20876;-50
2024/01/30 06:40:37;;;;;;;0.20;0.10;;;;;;;-0.50;100.00;101665.13;4998478;28;20449;-50
2024/01/30 06:43:04;;;;;;;0.20;0.10;;;;;;;-0.41;100.00;101668.09;4974705;28;20489;-50
2024/01/30 06:45:31;;;;;;;0.20;0.10;;;;;;;-0.47;100.00;101665.22;4978784;28;20457;-50
2024/01/30 06:47:58;;;;;;;0.20;0.10;;;;;;;-0.41;100.00;101661.94;4989278;28;20477;-50
2024/01/30 06:50:25;;;;;;;0.20;0.10;;;;;;;-0.33;100.00;101660.53;4991603;28;20530;-52
2024/01/30 06:52:52;;;;;;;0.20;0.10;;;;;;;-0.48;100.00;101655.63;4979471;28;20867;-52
2024/01/30 06:55:18;;;;;;;0.20;0.10;;;;;;;-0.36;100.00;101661.31;4978810;28;20505;-50
2024/01/30 06:57:45;;;;;;;0.20;0.10;;;;;;;-0.29;100.00;101657.19;4984408;28;20502;-51
2024/01/30 07:00:15;;;;;;;0.20;0.10;;;;;;;-0.27;100.00;101671.22;4969341;28;20489;-50
2024/01/30 07:02:41;;;;;;;0.20;0.10;;;;;;;-0.25;100.00;101669.56;4983715;28;20450;-50
2024/01/30 07:05:08;;;;;;;0.20;0.10;;;;;;;-0.25;100.00;101668.66;4982203;28;20454;-50
2024/01/30 07:07:34;;;;;;;0.20;0.13;;;;;;;-0.30;100.00;101669.34;4987028;28;20489;-50
2024/01/30 07:10:01;;;;;;;0.20;0.10;;;;;;;-0.43;100.00;101674.06;4988859;28;20455;-50
2024/01/30 07:12:27;;;;;;;0.20;0.10;;;;;;;-0.35;100.00;101676.16;4984242;28;20922;-50
2024/01/30 07:14:56;;;;;;;0.20;0.10;;;;;;;-0.35;100.00;101677.88;4982074;28;20485;-50
2024/01/30 07:17:22;;;;;;;0.20;0.10;;;;;;;-0.46;100.00;101680.06;4985626;28;20501;-49
2024/01/30 07:19:49;;;;;;;0.20;0.10;;;;;;;-0.41;100.00;101682.84;4988732;28;20569;-49
2024/01/30 07:22:15;;;;;;;0.20;0.10;;;;;;;-0.44;100.00;101683.63;4985328;28;20488;-50
2024/01/30 07:24:49;;;;;;;0.20;0.10;;;;;;;-0.44;100.00;101675.78;4982032;28;20461;-50
2024/01/30 07:27:17;;;;;;;0.20;0.10;;;;;;;-0.44;100.00;101688.84;4993399;28;20515;-51
2024/01/30 07:29:44;;;;;;;9.17;8.30;;;;;;;-0.48;100.00;101689.56;4981672;28;20456;-51
2024/01/30 07:32:10;;;;;;;0.20;0.10;;;;;;;-0.40;100.00;101689.88;4983712;28;20521;-50
2024/01/30 07:34:36;;;;;;;0.20;0.10;;;;;;;-0.42;100.00;101688.91;4988853;28;20450;-50
2024/01/30 07:37:18;;;;;;;0.20;0.10;;;;;;;-0.34;100.00;101690.97;4988263;28;20551;-50
2024/01/30 07:39:45;;;;;;;0.20;0.10;;;;;;;-0.30;100.00;101695.47;4999913;28;20452;-50
2024/01/30 07:42:11;;;;;;;0.20;0.10;;;;;;;-0.24;100.00;101686.13;4988864;28;20462;-50
2024/01/30 07:44:38;;;;;;;0.20;0.10;;;;;;;-0.08;100.00;101685.84;4988291;28;20454;-50
2024/01/30 07:47:05;;;;;;;12.73;11.60;;;;;;;0.05;100.00;101684.56;4987597;28;20473;-50
2024/01/30 07:49:34;;;;;;;0.20;0.10;;;;;;;-0.03;100.00;101685.16;4994399;28;21005;-51
2024/01/30 07:52:01;;;;;;;0.20;0.10;;;;;;;0.06;100.00;101692.47;4981421;28;20555;-50
2024/01/30 07:54:27;;;;;;;0.20;0.10;;;;;;;0.06;100.00;101687.25;4981428;28;20481;-50
2024/01/30 07:56:54;;;;;;;0.20;0.10;;;;;;;0.20;100.00;101692.97;4986246;28;20476;-50
2024/01/30 07:59:24;;;;;;;0.20;0.10;;;;;;;0.23;100.00;101698.31;4981722;28;20886;-50
2024/01/30 08:02:03;;;;;;;0.20;0.10;;;;;;;0.34;100.00;101691.72;4981157;28;20541;-51
2024/01/30 08:04:29;;;;;;;0.20;0.10;;;;;;;0.41;100.00;101692.81;4985278;28;20481;-49
2024/01/30 08:06:56;;;;;;;0.20;0.10;;;;;;;0.46;100.00;101696.50;4987733;28;20477;-50
2024/01/30 08:09:23;;;;;;;0.20;0.10;;;;;;;0.53;100.00;101699.38;4983543;28;20452;-50
2024/01/30 08:11:49;;;;;;;0.20;0.20;;;;;;;0.58;100.00;101700.44;4980883;28;20833;-50
2024/01/30 08:14:15;;;;;;;0.20;0.10;;;;;;;0.59;100.00;101697.00;4984942;28;20460;-50
2024/01/30 08:16:42;;;;;;;0.20;0.10;;;;;;;0.64;100.00;101698.88;4987348;28;21026;-50
2024/01/30 08:19:08;;;;;;;0.20;0.10;;;;;;;0.69;100.00;101699.94;4983884;28;20489;-50
2024/01/30 08:21:36;;;;;;;0.20;0.10;;;;;;;0.77;100.00;101694.09;4980797;28;20528;-51
2024/01/30 08:24:06;;;;;;;0.20;0.10;;;;;;;0.82;100.00;101689.00;4983695;28;20590;-50
2024/01/30 08:26:32;;;;;;;0.20;0.10;;;;;;;0.88;100.00;101697.09;4990144;28;20564;-50
2024/01/30 08:28:59;;;;;;;0.20;0.10;;;;;;;0.95;100.00;101698.16;4983556;28;20541;-50
2024/01/30 08:31:26;;;;;;;0.20;0.10;;;;;;;1.09;100.00;101691.66;4987440;28;20831;-50
2024/01/30 08:33:53;;;;;;;0.20;0.10;;;;;;;1.02;100.00;101692.31;4984879;28;20449;-49
2024/01/30 08:36:20;;;;;;;0.20;0.10;;;;;;;1.05;100.00;101695.91;4980278;28;20914;-50
2024/01/30 08:38:46;;;;;;;0.20;0.10;;;;;;;1.22;100.00;101700.78;4983207;28;20926;-50
2024/01/30 08:41:13;;;;;;;0.20;0.10;;;;;;;1.27;100.00;101694.88;5000117;28;20457;-50
2024/01/30 08:43:40;;;;;;;0.20;0.10;;;;;;;1.26;100.00;101692.22;4985491;28;20959;-50
2024/01/30 08:46:06;;;;;;;0.20;0.10;;;;;;;1.34;100.00;101688.97;4979956;28;20527;-50
2024/01/30 08:48:33;;;;;;;0.23;0.17;;;;;;;1.37;100.00;101693.41;4993366;28;20449;-51
2024/01/30 08:51:00;;;;;;;0.20;0.10;;;;;;;1.49;100.00;101699.94;4988460;28;20458;-51
2024/01/30 08:53:26;;;;;;;0.20;0.10;;;;;;;1.59;100.00;101692.34;4985319;28;20540;-51
2024/01/30 08:55:52;;;;;;;0.20;0.10;;;;;;;1.64;100.00;101680.28;4980130;28;20449;-51
2024/01/30 08:58:19;;;;;;;0.20;0.10;;;;;;;1.72;100.00;101684.91;5002632;28;20544;-50
2024/01/30 09:00:46;;;;;;;0.20;0.10;;;;;;;1.78;100.00;101690.34;4979988;28;20553;-52
2024/01/30 09:03:12;;;;;;;22.77;7.23;;;;;;;1.80;100.00;101700.88;4981761;28;20820;-51
2024/01/30 09:05:39;;;;;;;0.20;0.20;;;;;;;1.95;100.00;101701.31;4986671;28;20460;-52
2024/01/30 09:08:05;;;;;;;0.20;0.10;;;;;;;2.02;100.00;101705.00;4985190;28;20556;-51
2024/01/30 09:10:32;;;;;;;0.30;0.27;;;;;;;2.02;100.00;101700.63;4980028;28;20523;-51
2024/01/30 09:12:58;;;;;;;0.20;0.20;;;;;;;2.09;100.00;101693.84;4981157;28;20549;-51
2024/01/30 09:15:25;;;;;;;0.20;0.10;;;;;;;2.15;100.00;101698.38;4986268;28;20910;-51
2024/01/30 09:17:52;;;;;;;0.20;0.10;;;;;;;2.12;100.00;101701.81;4985735;28;20497;-50
2024/01/30 09:20:20;;;;;;;0.20;0.10;;;;;;;2.21;100.00;101706.44;4979661;28;20457;-50
2024/01/30 09:22:46;;;;;;;0.20;0.10;;;;;;;2.24;100.00;101709.13;4980272;28;20454;-51
2024/01/30 09:25:13;;;;;;;0.20;0.10;;;;;;;2.23;100.00;101705.63;4986658;28;20823;-50
2024/01/30 09:27:40;;;;;;;0.20;0.10;;;;;;;2.29;100.00;101710.13;4985971;28;20505;-51
2024/01/30 09:30:07;;;;;;;0.20;0.20;;;;;;;2.34;100.00;101711.19;4979396;28;20449;-51
2024/01/30 09:32:33;;;;;;;0.93;0.93;;;;;;;2.40;100.00;101715.69;4979890;28;20542;-51
2024/01/30 09:35:00;;;;;;;0.20;0.10;;;;;;;2.50;100.00;101712.47;4986064;28;20963;-53
2024/01/30 09:37:26;;;;;;;0.20;0.10;;;;;;;2.46;100.00;101719.34;4986003;28;20473;-51
2024/01/30 09:39:53;;;;;;;0.20;0.10;;;;;;;2.51;100.00;101717.78;4987297;28;20445;-50
2024/01/30 09:42:25;;;;;;;0.20;0.10;;;;;;;2.50;100.00;101716.00;4985205;28;20461;-51
2024/01/30 09:44:53;;;;;;;0.20;0.10;;;;;;;2.58;100.00;101717.06;4984528;28;20841;-51
2024/01/30 09:47:19;;;;;;;3.63;3.10;;;;;;;2.63;100.00;101706.72;4987158;28;20477;-50
2024/01/30 09:49:48;;;;;;;0.20;0.10;;;;;;;2.67;100.00;101712.06;4992565;28;20966;-51
2024/01/30 09:52:15;;;;;;;0.30;0.20;;;;;;;2.70;100.00;101713.00;5005344;28;20450;-51
2024/01/30 09:54:42;;;;;;;0.50;0.50;;;;;;;2.72;100.00;101708.66;4981355;28;20457;-51
2024/01/30 09:57:09;;;;;;;0.30;0.20;;;;;;;2.83;100.00;101708.09;4983101;28;20536;-51
2024/01/30 09:59:35;;;;;;;0.20;0.20;;;;;;;2.85;100.00;101702.88;4981066;28;20579;-50
2024/01/30 10:02:04;;;;;;;0.20;0.10;;;;;;;2.88;100.00;101703.00;4979053;28;20466;-50
2024/01/30 10:04:30;;;;;;;0.60;0.60;;;;;;;3.00;100.00;101713.78;4983596;28;20458;-51
2024/01/30 10:06:58;;;;;;;0.20;0.10;;;;;;;3.01;100.00;101707.66;4985682;28;20575;-50
2024/01/30 10:09:25;;;;;;;0.20;0.10;;;;;;;3.03;100.00;101700.75;4981958;28;20954;-51
2024/01/30 10:11:51;;;;;;;0.20;0.10;;;;;;;3.12;100.00;101710.56;4979135;28;20454;-50
2024/01/30 10:14:18;;;;;;;0.20;0.10;;;;;;;3.19;100.00;101707.25;4982811;28;20450;-50
2024/01/30 10:16:46;;;;;;;0.20;0.10;;;;;;;3.27;100.00;101708.31;4985928;28;20513;-50
2024/01/30 10:19:13;;;;;;;0.20;0.13;;;;;;;3.38;100.00;101709.47;4982224;28;20493;-50
2024/01/30 10:21:40;;;;;;;0.20;0.10;;;;;;;3.49;100.00;101710.59;4979211;28;20481;-51
2024/01/30 10:24:07;;;;;;;0.30;0.30;;;;;;;3.49;100.00;101714.97;4982288;28;20450;-52
2024/01/30 10:26:34;;;;;;;0.20;0.10;;;;;;;3.43;100.00;101710.47;4988272;28;20469;-51
2024/01/30 10:29:00;;;;;;;0.30;0.30;;;;;;;3.73;100.00;101715.53;4981841;28;20461;-51
2024/01/30 10:31:27;;;;;;;0.20;0.20;;;;;;;3.69;100.00;101720.69;4985417;28;20940;-50
2024/01/30 10:33:53;;;;;;;0.27;0.17;;;;;;;3.57;100.00;101716.06;4965144;28;20484;-50
2024/01/30 10:36:43;;;;;;;1.33;1.33;;;;;;;3.63;100.00;101720.56;4982417;28;20465;-51
2024/01/30 10:39:11;;;;;;;0.20;0.10;;;;;;;3.70;100.00;101723.38;4984802;28;20485;-50
2024/01/30 10:41:44;;;;;;;0.20;0.20;;;;;;;3.79;100.00;101712.16;4999178;28;20847;-50
2024/01/30 10:44:11;;;;;;;0.20;0.10;;;;;;;3.72;100.00;101711.13;4989687;28;20449;-51
2024/01/30 10:46:39;;;;;;;0.20;0.10;;;;;;;3.76;100.00;101712.97;4984794;28;21008;-50
2024/01/30 10:49:06;;;;;;;2.63;2.57;;;;;;;3.78;100.00;101706.00;4995720;28;20821;-50
2024/01/30 10:51:35;;;;;;;0.30;0.20;;;;;;;3.81;100.00;101702.53;4986502;28;20545;-50
2024/01/30 10:54:03;;;;;;;0.20;0.10;;;;;;;3.92;100.00;101697.53;4989228;28;20454;-50
2024/01/30 10:56:32;;;;;;;0.20;0.10;;;;;;;4.05;100.00;101696.91;4968732;28;20588;-50
2024/01/30 10:58:59;;;;;;;0.30;0.20;;;;;;;4.08;100.00;101692.59;4982479;28;21005;-51
2024/01/30 11:01:26;;;;;;;2.33;1.80;;;;;;;4.12;100.00;101697.09;4985139;28;20545;-51
2024/01/30 11:03:54;;;;;;;0.20;0.10;;;;;;;3.98;100.00;101687.16;4989003;28;20461;-50
2024/01/30 11:06:25;;;;;;;0.60;0.60;;;;;;;4.12;100.00;101680.41;4986781;28;20476;-50
2024/01/30 11:09:09;;;;;;;0.20;0.20;;;;;;;4.12;100.00;101672.53;4982552;28;20448;-51
2024/01/30 11:12:01;;;;;;;0.20;0.10;;;;;;;4.24;100.00;101675.38;4982286;28;20458;-50
2024/01/30 11:14:31;;;;;;;0.20;0.10;;;;;;;4.24;100.00;101675.38;4995293;28;20538;-50
2024/01/30 11:16:59;;;;;;;4.63;4.43;;;;;;;4.12;100.00;101665.53;4981774;28;20564;-51
2024/01/30 11:19:26;;;;;;;0.20;0.20;;;;;;;4.23;100.00;101656.94;4983319;28;20898;-51
2024/01/30 11:21:54;;;;;;;0.20;0.10;;;;;;;4.34;100.00;101665.91;4988626;28;20447;-50
2024/01/30 11:24:23;;;;;;;0.20;0.10;;;;;;;4.48;100.00;101672.31;4987673;28;20517;-51